Terminal Aerodrome Forecast
Issued by NWS

Current Version | Previous Version | Text Only | Print | Product List | Glossary On
Versions: 1 2 3 4 5 6 7 8 9 10 11 12 13 14 15 16 17 18 19 20 21 22
000
FTUS41 KBOX 251738 AAC
TAFACK
TAF AMD
KACK 251738Z 2518/2618 08007KT P6SM OVC007
     FM252200 08006KT P6SM OVC003
     FM260100 09006KT 3/4SM BR OVC003
     FM260400 10005KT 1/2SM FG OVC003
     FM261200 06004KT 1/2SM FG OVC003
     FM261300 04004KT 4SM BR OVC003
     FM261400 09004KT P6SM BKN003
     FM261500 10004KT P6SM OVC250=

USA.gov is the U.S. government's official web portal to all federal, state and local government web resources and services.